Latest Weather Observations for Croker Island Airport

IDD60801

Issued at 11:35 pm CST Saturday 30 August 2014 (issued every 30 minutes, with the page automatically refreshed every 10 minutes)

About weather observations | Map of weather stations | Latest weather observations for NT | Other Formats
Station Details ID: 014308 Name: CROKER ISLAND AIRPORT Lat: -11.16 Lon: 132.48 Height: 9.2 m
Data from the previous 72 hours. | See also: Recent months for locations in Northern Territory
Date/Time
CST
Temp
°C
App
Temp
°C
Dew
Point
Rel
Hum
%
Delta-T
°C
Wind Press
QNH
hPa
Press
MSL
hPa
Rain
since 9 am
mm
Dir
 
Spd
km/h
Gust
km/h
Spd
kts
Gust
kts
30/11:30pm 19.7 22.0 18.5 93 0.7 ENE 4 6 2 3 1013.5 1013.4 -
30/11:00pm 20.4 22.9 19.1 92 0.8 ENE 4 6 2 3 1013.3 1013.2 -
30/10:30pm 21.6 24.4 20.4 93 0.8 ENE 6 7 3 4 1013.1 1013.0 -
30/10:00pm 21.6 24.2 20.4 93 0.8 ENE 7 9 4 5 1013.1 1013.0 -
30/09:30pm 21.2 23.3 19.3 89 1.2 ENE 7 9 4 5 1013.0 1012.9 -
30/09:00pm 20.5 22.3 17.3 82 2.0 ENE 4 4 2 2 1013.0 1012.9 -
30/08:30pm 21.2 22.8 16.8 76 2.7 ENE 4 6 2 3 1012.8 1012.7 -
30/08:00pm 22.2 23.3 16.7 71 3.4 E 6 7 3 4 1012.5 1012.4 -
30/07:30pm 23.0 24.1 16.5 67 4.0 E 6 7 3 4 1012.2 1012.1 -
30/07:00pm 24.0 24.7 16.0 61 4.9 E 7 11 4 6 1012.0 1011.9 -
30/06:30pm 25.2 25.6 15.2 54 6.0 ENE 7 11 4 6 1011.7 1011.6 -
30/06:00pm 26.4 25.7 14.2 47 7.3 E 11 17 6 9 1011.4 1011.3 -
30/05:30pm 27.3 24.8 13.6 43 8.1 E 19 30 10 16 1011.0 1010.9 -
30/05:00pm 28.2 25.2 12.1 37 9.3 ENE 19 26 10 14 1010.7 1010.6 -
30/04:30pm 29.0 25.3 11.6 34 10.1 ENE 22 32 12 17 1010.6 1010.5 -
30/04:00pm 29.6 25.4 9.7 29 11.2 ENE 22 33 12 18 1010.7 1010.6 -
30/03:30pm 30.1 25.5 9.6 28 11.5 E 24 35 13 19 1010.9 1010.8 -
30/03:00pm 30.3 25.6 9.2 27 11.8 ENE 24 35 13 19 1011.0 1010.9 -
30/02:30pm 29.8 24.6 7.1 24 12.2 E 24 35 13 19 1011.6 1011.5 -
30/02:00pm 30.6 26.9 11.5 30 11.1 E 22 32 12 17 1012.2 1012.1 -
30/01:30pm 30.6 24.6 5.1 20 13.3 E 26 35 14 19 1012.8 1012.7 -
30/01:00pm 30.4 24.2 4.2 19 13.5 ESE 26 41 14 22 1013.2 1013.1 -
30/12:30pm 30.4 26.0 7.6 24 12.4 E 20 32 11 17 1013.7 1013.6 -
30/12:00pm 30.1 27.1 12.1 33 10.5 ESE 19 30 10 16 1014.3 1014.2 -
30/11:30am 28.9 27.6 14.7 42 8.6 E 15 24 8 13 1014.9 1014.8 -
30/11:00am 29.1 27.9 16.0 45 8.1 E 17 26 9 14 1015.2 1015.1 -
30/10:30am 28.3 27.7 16.6 49 7.3 E 15 20 8 11 1015.5 1015.4 -
30/10:00am 27.4 27.6 16.7 52 6.7 ESE 11 20 6 11 1015.6 1015.5 -
30/09:30am 26.3 27.8 19.7 67 4.3 SSE 11 19 6 10 1015.5 1015.4 -
30/09:00am 25.0 26.2 19.8 73 3.4 SSE 13 17 7 9 1015.5 1015.4 -
30/08:30am 24.6 27.9 21.9 85 1.8 ESE 7 11 4 6 1015.3 1015.2 -
30/08:00am 22.6 26.3 22.6 100 0.0 SE 7 13 4 7 1015.1 1015.0 -
30/07:30am 21.7 24.9 21.7 100 0.0 SSE 7 11 4 6 1014.8 1014.7 -
30/07:00am 20.9 23.7 20.9 100 0.0 SE 7 9 4 5 1014.6 1014.5 -
30/06:30am 20.9 23.9 20.9 100 0.0 SE 6 7 3 4 1014.1 1014.0 -
30/06:00am 20.7 23.4 20.7 100 0.0 SE 7 7 4 4 1014.1 1014.0 -
30/05:30am 20.5 23.1 20.5 100 0.0 SSE 7 7 4 4 1013.9 1013.8 -
30/05:00am 20.1 22.7 20.1 100 0.0 SE 6 7 3 4 1013.6 1013.5 -
30/04:30am 20.4 23.2 20.4 100 0.0 SE 6 6 3 3 1013.5 1013.4 -
30/04:00am 20.3 23.0 20.3 100 0.0 SSE 6 7 3 4 1013.4 1013.3 -
30/03:30am 20.4 23.0 20.4 100 0.0 SE 7 7 4 4 1013.5 1013.4 -
30/03:00am 20.0 22.4 20.0 100 0.0 SE 7 9 4 5 1013.6 1013.5 -
30/02:30am 19.8 22.0 19.6 99 0.1 ESE 7 9 4 5 1013.6 1013.5 -
30/02:00am 19.8 22.0 19.5 98 0.2 ESE 7 9 4 5 1013.7 1013.6 -
30/01:30am 19.8 22.0 19.5 98 0.2 ESE 7 7 4 4 1013.9 1013.8 -
30/01:00am 19.3 21.5 18.3 94 0.6 ESE 4 4 2 2 1014.1 1014.0 -
30/12:30am 19.2 21.3 17.3 89 1.2 ESE 2 6 1 3 1014.2 1014.1 -
30/12:00am 18.9 20.1 16.0 83 1.7 E 4 6 2 3 1014.2 1014.1 -
 
Date/Time
CST
Temp
°C
App
Temp
°C
Dew
Point
Rel
Hum
%
Delta-T
°C
Wind Press
QNH
hPa
Press
MSL
hPa
Rain
since 9 am
mm
Dir
 
Spd
km/h
Gust
km/h
Spd
kts
Gust
kts
29/11:30pm 19.7 21.0 16.2 80 2.1 ENE 4 4 2 2 1014.2 1014.1 -
29/11:00pm 21.0 22.3 17.6 81 2.1 ENE 7 9 4 5 1014.1 1014.0 -
29/10:30pm 20.7 21.9 16.9 79 2.3 ENE 6 7 3 4 1014.0 1013.9 -
29/10:00pm 19.8 20.3 15.0 74 2.8 ENE 6 7 3 4 1014.0 1013.9 -
29/09:30pm 19.9 20.1 14.3 70 3.2 E 6 6 3 3 1014.0 1013.9 -
29/09:00pm 20.2 20.4 14.1 68 3.5 E 6 7 3 4 1013.8 1013.7 -
29/08:30pm 20.7 20.6 13.9 65 3.9 E 7 7 4 4 1013.3 1013.2 -
29/08:00pm 20.1 20.1 12.3 61 4.4 E 4 6 2 3 1013.1 1013.0 -
29/07:30pm 21.9 21.4 12.2 54 5.5 E 6 7 3 4 1013.1 1013.0 -
29/07:00pm 23.5 23.1 12.5 50 6.3 E 6 9 3 5 1013.0 1012.9 -
29/06:30pm 24.9 24.5 13.1 48 6.9 ENE 7 13 4 7 1012.7 1012.6 -
29/06:00pm 26.1 23.3 11.5 40 8.3 E 17 24 9 13 1012.4 1012.3 -
29/05:30pm 27.1 22.7 9.0 32 9.9 E 22 32 12 17 1012.4 1012.3 -
29/05:00pm 27.6 22.7 8.5 30 10.4 E 24 37 13 20 1012.3 1012.2 -
29/04:30pm 28.7 22.2 4.9 22 12.3 E 28 39 15 21 1012.1 1012.0 -
29/04:00pm 29.5 23.7 4.2 20 12.9 E 24 33 13 18 1012.2 1012.1 -
29/03:30pm 29.9 24.5 4.5 20 13.1 E 22 32 12 17 1012.4 1012.3 -
29/03:00pm 30.2 24.9 4.8 20 13.2 E 22 35 12 19 1012.5 1012.4 -
29/02:30pm 30.5 25.2 5.0 20 13.3 E 22 33 12 18 1012.6 1012.5 -
29/02:00pm 30.1 24.0 4.7 20 13.2 E 26 37 14 20 1013.1 1013.0 -
29/01:30pm 30.6 24.6 3.6 18 13.8 E 24 37 13 20 1013.4 1013.3 -
29/01:00pm 30.3 24.4 4.1 19 13.4 ESE 24 35 13 19 1013.7 1013.6 -
29/12:30pm 29.8 22.2 0.4 15 14.1 ESE 30 43 16 23 1014.0 1013.9 -
29/12:00pm 29.5 24.1 6.2 23 12.3 E 24 35 13 19 1014.2 1014.1 -
29/11:30am 29.1 23.6 7.7 26 11.6 E 26 41 14 22 1014.8 1014.7 -
29/11:00am 28.6 24.8 11.2 34 10.0 ESE 22 33 12 18 1015.2 1015.1 -
29/10:30am 27.9 23.9 10.6 34 9.8 E 22 30 12 16 1015.5 1015.4 -
29/10:00am 27.4 24.1 11.0 36 9.3 ESE 19 30 10 16 1015.5 1015.4 -
29/09:30am 26.8 23.6 11.3 38 8.8 E 19 28 10 15 1015.6 1015.5 -
29/09:00am 26.1 23.1 11.8 41 8.2 ESE 19 30 10 16 1015.6 1015.5 -
29/08:30am 24.4 23.2 13.9 52 6.2 ESE 13 19 7 10 1015.3 1015.2 -
29/08:00am 23.0 22.0 13.5 55 5.5 ESE 11 15 6 8 1015.1 1015.0 -
29/07:30am 21.0 20.6 14.2 65 4.0 ESE 9 11 5 6 1015.0 1014.9 -
29/07:00am 19.3 18.7 13.5 69 3.3 ESE 9 11 5 6 1014.7 1014.6 -
29/06:30am 19.7 19.2 13.9 69 3.3 SE 9 13 5 7 1014.4 1014.3 -
29/06:00am 19.4 18.8 13.6 69 3.3 SE 9 11 5 6 1014.3 1014.2 -
29/05:30am 19.6 19.0 13.5 68 3.5 ESE 9 9 5 5 1013.9 1013.8 -
29/05:00am 20.1 20.0 13.8 67 3.6 ESE 7 11 4 6 1013.8 1013.7 -
29/04:30am 20.1 20.0 13.8 67 3.6 ESE 7 9 4 5 1013.7 1013.6 -
29/04:00am 21.1 20.6 13.8 63 4.2 ESE 9 13 5 7 1013.4 1013.3 -
29/03:30am 22.1 20.6 13.2 57 5.1 ESE 13 17 7 9 1013.2 1013.1 -
29/03:00am 21.9 21.0 12.5 55 5.3 ESE 9 15 5 8 1013.2 1013.1 -
29/02:30am 22.5 21.3 14.1 59 4.9 ESE 13 20 7 11 1013.2 1013.1 -
29/02:00am 21.8 22.3 17.4 76 2.7 E 11 17 6 9 1013.3 1013.2 -
29/01:30am 21.0 22.3 18.4 85 1.6 E 9 15 5 8 1013.5 1013.4 -
29/01:00am 20.1 22.0 18.9 93 0.8 ESE 7 11 4 6 1013.5 1013.4 -
29/12:30am 19.4 21.2 18.4 94 0.6 E 6 7 3 4 1013.6 1013.5 -
29/12:00am 19.4 21.2 18.4 94 0.6 E 6 6 3 3 1013.8 1013.7 -
 
Date/Time
CST
Temp
°C
App
Temp
°C
Dew
Point
Rel
Hum
%
Delta-T
°C
Wind Press
QNH
hPa
Press
MSL
hPa
Rain
since 9 am
mm
Dir
 
Spd
km/h
Gust
km/h
Spd
kts
Gust
kts
28/11:30pm 19.8 22.1 18.6 93 0.7 E 4 4 2 2 1013.8 1013.7 -
28/11:00pm 19.4 21.5 17.2 87 1.3 E 2 4 1 2 1013.9 1013.8 -
28/10:30pm 19.8 21.6 16.4 81 2.0 E 2 4 1 2 1014.0 1013.9 -
28/10:00pm 21.2 22.7 17.6 80 2.2 ENE 6 7 3 4 1013.8 1013.7 -
28/09:30pm 21.5 22.7 17.3 77 2.6 ENE 7 7 4 4 1014.0 1013.9 -
28/09:00pm 21.5 22.6 17.1 76 2.7 E 7 9 4 5 1013.7 1013.6 -
28/08:30pm 21.3 22.4 16.5 74 2.9 E 6 7 3 4 1013.5 1013.4 -
28/08:00pm 22.1 23.1 16.4 70 3.5 E 6 7 3 4 1013.3 1013.2 -
28/07:30pm 23.0 23.5 16.5 67 4.0 ENE 9 11 5 6 1013.0 1012.9 -
28/07:00pm 23.9 23.5 16.2 62 4.7 ENE 13 17 7 9 1012.5 1012.4 -
28/06:30pm 24.7 23.4 15.9 58 5.4 NE 17 24 9 13 1012.4 1012.3 -
28/06:00pm 25.8 23.6 14.9 51 6.6 ENE 20 28 11 15 1012.1 1012.0 -
28/05:30pm 26.5 23.8 14.6 48 7.1 E 22 33 12 18 1012.2 1012.1 -
28/05:00pm 27.4 25.2 14.8 46 7.6 E 20 33 11 18 1012.1 1012.0 -
28/04:30pm 28.1 24.5 13.2 39 8.8 E 24 33 13 18 1011.9 1011.8 -
28/04:00pm 28.5 23.9 11.1 34 9.9 E 26 37 14 20 1011.9 1011.8 -
28/03:30pm 28.7 24.3 11.7 35 9.8 E 26 35 14 19 1011.9 1011.8 -
28/03:00pm 29.4 24.7 10.5 31 10.7 E 26 37 14 20 1012.1 1012.0 -
28/02:30pm 29.9 24.2 8.3 26 11.9 E 28 44 15 24 1012.3 1012.2 -
28/02:00pm 29.4 22.4 6.1 23 12.3 E 32 44 17 24 1012.5 1012.4 -
28/01:34pm 29.5 23.3 6.2 23 12.3 E 28 48 15 26 1012.9 1012.8 -
28/01:30pm 29.5 23.5 8.5 27 11.6 E 30 44 16 24 1013.0 1012.9 -
28/01:11pm 29.1 21.4 5.2 22 12.4 E 35 56 19 30 1013.5 1013.4 -
28/01:00pm 29.5 22.7 6.8 24 12.1 E 32 46 17 25 1013.6 1013.5 -
28/12:30pm 29.8 24.2 7.1 24 12.2 E 26 41 14 22 1013.9 1013.8 -
28/12:26pm 29.5 23.6 7.4 25 11.9 E 28 48 15 26 1014.0 1013.9 -
28/12:00pm 29.6 23.2 5.0 21 12.8 ESE 28 44 15 24 1014.1 1014.0 -
28/11:30am 28.9 21.4 3.7 20 12.7 ESE 32 46 17 25 1014.4 1014.3 -
28/11:09am 28.5 21.0 4.7 22 12.2 ESE 33 54 18 29 1014.6 1014.5 -
28/11:00am 28.4 21.6 5.3 23 12.0 ESE 30 44 16 24 1014.7 1014.6 -
28/10:42am 28.4 22.3 6.5 25 11.6 E 28 46 15 25 1014.7 1014.6 -
28/10:30am 28.4 23.0 6.5 25 11.6 ESE 24 43 13 23 1014.7 1014.6 -
28/10:00am 27.4 22.3 7.8 29 10.5 ESE 24 35 13 19 1014.9 1014.8 -
28/09:30am 26.9 22.4 8.4 31 10.0 ESE 22 33 12 18 1014.9 1014.8 -
28/09:00am 26.2 22.6 10.0 36 9.0 ESE 19 28 10 15 1015.1 1015.0 -
28/08:30am 25.1 21.8 10.9 41 8.0 ESE 19 28 10 15 1014.8 1014.7 -
28/08:00am 24.2 22.8 12.2 47 6.8 ESE 11 20 6 11 1014.6 1014.5 -
28/07:30am 22.7 20.8 11.7 49 6.2 ESE 13 20 7 11 1014.1 1014.0 -
28/07:00am 21.2 19.6 11.5 54 5.4 ESE 11 19 6 10 1013.8 1013.7 -
28/06:30am 20.3 19.4 12.5 61 4.4 SE 9 19 5 10 1013.7 1013.6 -
28/06:00am 19.6 19.1 12.6 64 3.9 ESE 7 13 4 7 1013.6 1013.5 -
28/05:30am 20.4 19.9 12.6 61 4.4 ESE 7 9 4 5 1013.3 1013.2 -
28/05:00am 20.4 20.1 13.4 64 4.0 ESE 7 13 4 7 1013.0 1012.9 -
28/04:30am 20.5 20.0 13.7 65 3.9 ESE 9 13 5 7 1013.0 1012.9 -
28/04:00am 21.1 20.7 14.0 64 4.1 ESE 9 11 5 6 1013.1 1013.0 -
28/03:30am 22.0 21.2 14.1 61 4.6 ESE 11 17 6 9 1013.2 1013.1 -
28/03:00am 22.6 21.7 13.7 57 5.2 ESE 11 17 6 9 1013.4 1013.3 -
28/02:30am 23.2 21.6 13.9 56 5.4 ESE 15 24 8 13 1013.4 1013.3 -
28/02:00am 23.8 21.8 15.0 57 5.3 ESE 19 26 10 14 1013.5 1013.4 -
28/01:30am 23.9 23.1 17.2 66 4.1 ESE 17 26 9 14 1013.8 1013.7 -
28/01:00am 24.0 23.3 17.3 66 4.2 E 17 26 9 14 1013.8 1013.7 -
28/12:30am 24.2 23.5 18.2 69 3.8 E 19 28 10 15 1014.0 1013.9 -
28/12:00am 23.7 24.1 19.0 75 3.0 E 15 20 8 11 1014.0 1013.9 -

Other Formats:

Comma delimited format used in spreadsheet applications
http://www.bom.gov.au/fwo/IDD60801/IDD60801.94108.axf

JavaScript Object Notation format (JSON) in row-major order
http://www.bom.gov.au/fwo/IDD60801/IDD60801.94108.json